Progresso, Brazil
Current Conditions -  °F | °C
As of 1:00 PM on Wednesday 22 Oct 2014 (Local Time) from SBPF Reporting Station
Clear Clear  
Wind Chill: 70°   Ceiling: Unl
Heat Index: 70°   Visibility: 6mi
Dew Point: 57°   Wind: 8mph
Humidity: 64%   Direction: 60°ENE
Pressure: 30.18"   Gusts: NA
Location:  29.24°S, 52.31°W
Report Text: SBPF 221500Z 06007KT CAVOK 21/14 Q1022
Loading
Personal Weather Stations






























Interactive Weather Map
Tropical Storm Tracking
New forecast layout! Learn more

10-Day Weather Forecast

Advertisements
Track Severe Weather on mobile